sensor_id;sensor_type;location;lat;lon;timestamp;pressure;altitude;pressure_sealevel;temperature;humidity
22259;BME280;11298;46.034;14.496;2022-09-12T00:01:36;98298.22;;;15.53;77.22
22259;BME280;11298;46.034;14.496;2022-09-12T00:04:04;98300.03;;;15.48;77.68
22259;BME280;11298;46.034;14.496;2022-09-12T00:06:34;98296.56;;;15.52;77.72
22259;BME280;11298;46.034;14.496;2022-09-12T00:09:10;98294.91;;;15.51;76.54
22259;BME280;11298;46.034;14.496;2022-09-12T00:11:42;98291.94;;;15.53;76.13
22259;BME280;11298;46.034;14.496;2022-09-12T00:14:14;98291.94;;;15.53;76.46
22259;BME280;11298;46.034;14.496;2022-09-12T00:16:45;98290.25;;;15.52;75.93
22259;BME280;11298;46.034;14.496;2022-09-12T00:19:13;98290.75;;;15.49;76.29
22259;BME280;11298;46.034;14.496;2022-09-12T00:21:42;98295.38;;;15.48;76.42
22259;BME280;11298;46.034;14.496;2022-09-12T00:24:10;98287.56;;;15.40;76.76
22259;BME280;11298;46.034;14.496;2022-09-12T00:26:38;98289.97;;;15.25;77.67
22259;BME280;11298;46.034;14.496;2022-09-12T00:29:06;98282.13;;;15.28;77.20
22259;BME280;11298;46.034;14.496;2022-09-12T00:31:37;98291.63;;;15.26;76.82
22259;BME280;11298;46.034;14.496;2022-09-12T00:34:05;98294.63;;;15.24;76.69
22259;BME280;11298;46.034;14.496;2022-09-12T00:36:37;98283.00;;;15.17;77.17
22259;BME280;11298;46.034;14.496;2022-09-12T00:39:07;98288.13;;;15.14;77.98
22259;BME280;11298;46.034;14.496;2022-09-12T00:41:37;98286.81;;;15.16;77.41
22259;BME280;11298;46.034;14.496;2022-09-12T00:47:17;98289.56;;;15.04;78.37
22259;BME280;11298;46.034;14.496;2022-09-12T00:50:11;98284.44;;;15.08;78.27
22259;BME280;11298;46.034;14.496;2022-09-12T00:52:48;98282.53;;;15.08;77.55
22259;BME280;11298;46.034;14.496;2022-09-12T00:57:53;98282.31;;;14.98;75.54
22259;BME280;11298;46.034;14.496;2022-09-12T01:00:28;98278.38;;;14.94;76.14
22259;BME280;11298;46.034;14.496;2022-09-12T01:03:10;98291.13;;;14.89;75.50
22259;BME280;11298;46.034;14.496;2022-09-12T01:06:17;98276.03;;;14.86;75.52
22259;BME280;11298;46.034;14.496;2022-09-12T01:08:47;98270.69;;;14.80;75.06
22259;BME280;11298;46.034;14.496;2022-09-12T01:11:21;98281.63;;;14.80;76.40
22259;BME280;11298;46.034;14.496;2022-09-12T01:13:53;98272.00;;;14.77;77.00
22259;BME280;11298;46.034;14.496;2022-09-12T01:16:21;98272.47;;;14.74;77.13
22259;BME280;11298;46.034;14.496;2022-09-12T01:22:30;98273.91;;;14.65;75.00
22259;BME280;11298;46.034;14.496;2022-09-12T01:25:39;98275.31;;;14.56;75.27
22259;BME280;11298;46.034;14.496;2022-09-12T01:31:40;98270.25;;;14.48;76.47
22259;BME280;11298;46.034;14.496;2022-09-12T01:34:37;98267.97;;;14.45;76.57
22259;BME280;11298;46.034;14.496;2022-09-12T01:37:36;98265.91;;;14.40;75.11
22259;BME280;11298;46.034;14.496;2022-09-12T01:40:26;98267.69;;;14.34;74.98
22259;BME280;11298;46.034;14.496;2022-09-12T01:43:22;98263.53;;;14.32;77.22
22259;BME280;11298;46.034;14.496;2022-09-12T01:46:14;98261.50;;;14.27;77.40
22259;BME280;11298;46.034;14.496;2022-09-12T01:49:51;98259.84;;;14.26;76.57
22259;BME280;11298;46.034;14.496;2022-09-12T01:51:55;98264.09;;;14.22;76.14
22259;BME280;11298;46.034;14.496;2022-09-12T01:54:40;98259.72;;;14.21;76.88
22259;BME280;11298;46.034;14.496;2022-09-12T01:57:38;98259.16;;;14.19;78.03
22259;BME280;11298;46.034;14.496;2022-09-12T02:00:13;98261.50;;;14.16;78.48
22259;BME280;11298;46.034;14.496;2022-09-12T02:02:56;98266.63;;;14.12;78.85
22259;BME280;11298;46.034;14.496;2022-09-12T02:05:33;98259.25;;;14.13;77.59
22259;BME280;11298;46.034;14.496;2022-09-12T02:08:21;98259.63;;;14.16;77.06
22259;BME280;11298;46.034;14.496;2022-09-12T02:11:07;98262.22;;;14.11;77.79
22259;BME280;11298;46.034;14.496;2022-09-12T02:13:54;98257.81;;;14.10;78.02
22259;BME280;11298;46.034;14.496;2022-09-12T02:16:44;98256.75;;;14.11;77.22
22259;BME280;11298;46.034;14.496;2022-09-12T02:19:19;98256.84;;;14.04;76.42
22259;BME280;11298;46.034;14.496;2022-09-12T02:22:05;98256.34;;;13.96;75.89
22259;BME280;11298;46.034;14.496;2022-09-12T02:24:38;98259.56;;;13.93;75.51
22259;BME280;11298;46.034;14.496;2022-09-12T02:27:22;98252.44;;;13.92;77.22
22259;BME280;11298;46.034;14.496;2022-09-12T02:30:00;98257.44;;;13.95;77.01
22259;BME280;11298;46.034;14.496;2022-09-12T02:40:39;98258.34;;;13.77;76.76
22259;BME280;11298;46.034;14.496;2022-09-12T02:43:09;98264.88;;;13.76;76.96
22259;BME280;11298;46.034;14.496;2022-09-12T02:45:39;98254.78;;;13.77;77.22
22259;BME280;11298;46.034;14.496;2022-09-12T02:48:33;98251.91;;;13.71;76.69
22259;BME280;11298;46.034;14.496;2022-09-12T02:51:10;98240.41;;;13.69;75.30
22259;BME280;11298;46.034;14.496;2022-09-12T02:53:40;98246.09;;;13.68;76.08
22259;BME280;11298;46.034;14.496;2022-09-12T02:56:17;98250.56;;;13.62;77.39
22259;BME280;11298;46.034;14.496;2022-09-12T02:58:49;98250.81;;;13.61;76.52
22259;BME280;11298;46.034;14.496;2022-09-12T03:18:00;98266.31;;;13.49;77.28
22259;BME280;11298;46.034;14.496;2022-09-12T03:21:10;98267.00;;;13.44;79.30
22259;BME280;11298;46.034;14.496;2022-09-12T03:23:42;98265.34;;;13.43;80.41
22259;BME280;11298;46.034;14.496;2022-09-12T03:28:48;98263.06;;;13.40;81.95
22259;BME280;11298;46.034;14.496;2022-09-12T03:31:19;98249.66;;;13.38;81.79
22259;BME280;11298;46.034;14.496;2022-09-12T03:33:50;98252.78;;;13.42;81.74
22259;BME280;11298;46.034;14.496;2022-09-12T03:36:21;98250.13;;;13.35;82.68
22259;BME280;11298;46.034;14.496;2022-09-12T03:38:59;98255.34;;;13.37;83.11
22259;BME280;11298;46.034;14.496;2022-09-12T03:41:29;98251.88;;;13.30;82.35
22259;BME280;11298;46.034;14.496;2022-09-12T03:43:57;98252.09;;;13.28;81.70
22259;BME280;11298;46.034;14.496;2022-09-12T03:46:28;98251.88;;;13.30;80.54
22259;BME280;11298;46.034;14.496;2022-09-12T03:48:56;98250.44;;;13.27;81.05
22259;BME280;11298;46.034;14.496;2022-09-12T03:51:27;98258.38;;;13.29;81.50
22259;BME280;11298;46.034;14.496;2022-09-12T03:53:54;98260.28;;;13.28;80.81
22259;BME280;11298;46.034;14.496;2022-09-12T03:56:23;98263.38;;;13.32;81.07
22259;BME280;11298;46.034;14.496;2022-09-12T03:58:52;98259.59;;;13.33;80.64
22259;BME280;11298;46.034;14.496;2022-09-12T04:01:21;98261.25;;;13.34;81.45
22259;BME280;11298;46.034;14.496;2022-09-12T04:03:51;98265.44;;;13.36;82.09
22259;BME280;11298;46.034;14.496;2022-09-12T04:06:21;98262.47;;;13.38;82.71
22259;BME280;11298;46.034;14.496;2022-09-12T04:08:50;98264.97;;;13.39;82.70
22259;BME280;11298;46.034;14.496;2022-09-12T04:11:20;98257.63;;;13.40;82.29
22259;BME280;11298;46.034;14.496;2022-09-12T04:13:50;98267.84;;;13.45;82.65
22259;BME280;11298;46.034;14.496;2022-09-12T04:16:19;98261.56;;;13.44;82.89
22259;BME280;11298;46.034;14.496;2022-09-12T04:18:46;98267.16;;;13.49;82.52
22259;BME280;11298;46.034;14.496;2022-09-12T04:21:17;98275.22;;;13.56;82.53
22259;BME280;11298;46.034;14.496;2022-09-12T04:23:45;98268.47;;;13.58;82.25
22259;BME280;11298;46.034;14.496;2022-09-12T04:26:16;98266.81;;;13.57;82.43
22259;BME280;11298;46.034;14.496;2022-09-12T04:28:52;98264.53;;;13.54;82.61
22259;BME280;11298;46.034;14.496;2022-09-12T04:31:19;98269.38;;;13.52;83.81
22259;BME280;11298;46.034;14.496;2022-09-12T04:33:58;98268.09;;;13.55;84.20
22259;BME280;11298;46.034;14.496;2022-09-12T04:36:30;98272.25;;;13.57;84.33
22259;BME280;11298;46.034;14.496;2022-09-12T04:39:00;98271.34;;;13.63;84.95
22259;BME280;11298;46.034;14.496;2022-09-12T04:41:31;98267.31;;;13.66;84.91
22259;BME280;11298;46.034;14.496;2022-09-12T04:44:06;98264.59;;;13.66;85.15
22259;BME280;11298;46.034;14.496;2022-09-12T04:46:37;98266.94;;;13.62;84.90
22259;BME280;11298;46.034;14.496;2022-09-12T04:49:06;98270.66;;;13.68;84.65
22259;BME280;11298;46.034;14.496;2022-09-12T04:51:38;98279.66;;;13.68;84.58
22259;BME280;11298;46.034;14.496;2022-09-12T04:54:15;98284.56;;;13.78;84.01
22259;BME280;11298;46.034;14.496;2022-09-12T04:56:46;98293.13;;;13.82;83.42
22259;BME280;11298;46.034;14.496;2022-09-12T04:59:18;98297.53;;;13.83;83.60
22259;BME280;11298;46.034;14.496;2022-09-12T05:01:46;98299.38;;;13.70;84.89
22259;BME280;11298;46.034;14.496;2022-09-12T05:04:15;98303.31;;;13.74;85.09
22259;BME280;11298;46.034;14.496;2022-09-12T05:06:43;98296.91;;;13.81;84.05
22259;BME280;11298;46.034;14.496;2022-09-12T05:09:14;98302.69;;;13.72;83.99
22259;BME280;11298;46.034;14.496;2022-09-12T05:11:43;98311.16;;;13.83;83.07
22259;BME280;11298;46.034;14.496;2022-09-12T05:14:33;98323.03;;;13.88;82.20
22259;BME280;11298;46.034;14.496;2022-09-12T05:17:01;98323.16;;;13.93;81.76
22259;BME280;11298;46.034;14.496;2022-09-12T05:19:30;98320.94;;;14.02;81.34
22259;BME280;11298;46.034;14.496;2022-09-12T05:21:59;98319.88;;;14.03;80.88
22259;BME280;11298;46.034;14.496;2022-09-12T05:24:27;98322.63;;;14.03;80.60
22259;BME280;11298;46.034;14.496;2022-09-12T05:26:55;98320.47;;;14.05;80.57
22259;BME280;11298;46.034;14.496;2022-09-12T05:29:24;98324.41;;;14.09;81.07
22259;BME280;11298;46.034;14.496;2022-09-12T05:31:51;98322.28;;;14.11;81.48
22259;BME280;11298;46.034;14.496;2022-09-12T05:34:20;98327.53;;;14.24;81.72
22259;BME280;11298;46.034;14.496;2022-09-12T05:36:48;98326.84;;;14.40;81.24
22259;BME280;11298;46.034;14.496;2022-09-12T05:39:16;98325.81;;;14.41;81.12
22259;BME280;11298;46.034;14.496;2022-09-12T05:41:46;98325.84;;;14.23;81.21
22259;BME280;11298;46.034;14.496;2022-09-12T05:44:13;98328.47;;;14.18;81.18
22259;BME280;11298;46.034;14.496;2022-09-12T05:46:43;98330.50;;;14.34;81.53
22259;BME280;11298;46.034;14.496;2022-09-12T05:49:16;98333.53;;;14.45;81.33
22259;BME280;11298;46.034;14.496;2022-09-12T05:51:45;98337.47;;;14.49;80.22
22259;BME280;11298;46.034;14.496;2022-09-12T05:54:15;98338.28;;;14.61;80.20
22259;BME280;11298;46.034;14.496;2022-09-12T05:56:45;98337.47;;;14.60;79.54
22259;BME280;11298;46.034;14.496;2022-09-12T05:59:19;98335.31;;;14.62;80.15
22259;BME280;11298;46.034;14.496;2022-09-12T06:01:47;98338.06;;;14.51;80.22
22259;BME280;11298;46.034;14.496;2022-09-12T06:04:16;98339.63;;;14.70;79.76
22259;BME280;11298;46.034;14.496;2022-09-12T06:06:45;98337.59;;;14.77;78.90
22259;BME280;11298;46.034;14.496;2022-09-12T06:09:15;98352.13;;;14.89;78.63
22259;BME280;11298;46.034;14.496;2022-09-12T06:11:45;98353.28;;;14.93;78.88
22259;BME280;11298;46.034;14.496;2022-09-12T06:14:14;98349.00;;;14.97;78.31
22259;BME280;11298;46.034;14.496;2022-09-12T06:16:43;98347.22;;;15.03;79.15
22259;BME280;11298;46.034;14.496;2022-09-12T06:19:17;98340.03;;;15.25;79.11
22259;BME280;11298;46.034;14.496;2022-09-12T06:21:48;98323.84;;;15.35;78.44
22259;BME280;11298;46.034;14.496;2022-09-12T06:24:17;98330.22;;;15.64;79.51
22259;BME280;11298;46.034;14.496;2022-09-12T06:26:50;98339.00;;;15.95;77.13
22259;BME280;11298;46.034;14.496;2022-09-12T06:29:19;98339.50;;;15.63;76.06
22259;BME280;11298;46.034;14.496;2022-09-12T06:31:47;98333.94;;;15.58;76.30
22259;BME280;11298;46.034;14.496;2022-09-12T06:34:18;98336.31;;;15.43;78.23
22259;BME280;11298;46.034;14.496;2022-09-12T06:36:51;98345.75;;;15.35;78.11
22259;BME280;11298;46.034;14.496;2022-09-12T06:39:22;98352.97;;;15.53;77.81
22259;BME280;11298;46.034;14.496;2022-09-12T06:47:45;98345.50;;;16.51;75.32
22259;BME280;11298;46.034;14.496;2022-09-12T06:50:13;98343.44;;;16.58;73.76
22259;BME280;11298;46.034;14.496;2022-09-12T06:52:42;98344.25;;;16.41;74.30
22259;BME280;11298;46.034;14.496;2022-09-12T06:55:11;98349.25;;;16.61;73.36
22259;BME280;11298;46.034;14.496;2022-09-12T06:57:47;98347.16;;;16.52;73.17
22259;BME280;11298;46.034;14.496;2022-09-12T07:00:17;98351.72;;;16.46;74.62
22259;BME280;11298;46.034;14.496;2022-09-12T07:02:46;98344.59;;;16.62;74.11
22259;BME280;11298;46.034;14.496;2022-09-12T07:05:13;98346.59;;;16.83;73.41
22259;BME280;11298;46.034;14.496;2022-09-12T07:07:42;98342.94;;;16.78;73.19
22259;BME280;11298;46.034;14.496;2022-09-12T07:10:12;98341.28;;;16.77;73.12
22259;BME280;11298;46.034;14.496;2022-09-12T07:12:44;98350.56;;;17.09;72.51
22259;BME280;11298;46.034;14.496;2022-09-12T07:15:16;98338.91;;;17.40;72.26
22259;BME280;11298;46.034;14.496;2022-09-12T07:17:43;98340.13;;;17.50;70.44
22259;BME280;11298;46.034;14.496;2022-09-12T07:20:11;98341.91;;;17.39;70.46
22259;BME280;11298;46.034;14.496;2022-09-12T07:22:41;98343.75;;;17.33;71.51
22259;BME280;11298;46.034;14.496;2022-09-12T07:25:12;98340.97;;;17.50;72.63
22259;BME280;11298;46.034;14.496;2022-09-12T07:27:44;98342.44;;;17.58;72.78
22259;BME280;11298;46.034;14.496;2022-09-12T07:30:18;98342.13;;;18.25;70.17
22259;BME280;11298;46.034;14.496;2022-09-12T07:32:54;98338.66;;;18.66;67.39
22259;BME280;11298;46.034;14.496;2022-09-12T07:35:24;98346.66;;;19.05;65.98
22259;BME280;11298;46.034;14.496;2022-09-12T07:37:55;98348.44;;;19.26;65.99
22259;BME280;11298;46.034;14.496;2022-09-12T07:40:25;98360.06;;;19.43;64.58
22259;BME280;11298;46.034;14.496;2022-09-12T07:42:56;98354.66;;;19.12;64.76
22259;BME280;11298;46.034;14.496;2022-09-12T07:45:23;98354.16;;;19.20;64.16
22259;BME280;11298;46.034;14.496;2022-09-12T07:47:56;98356.97;;;19.82;63.35
22259;BME280;11298;46.034;14.496;2022-09-12T07:50:26;98356.56;;;20.26;63.04
22259;BME280;11298;46.034;14.496;2022-09-12T07:52:58;98367.97;;;20.75;61.68
22259;BME280;11298;46.034;14.496;2022-09-12T07:55:27;98361.63;;;20.74;60.08
22259;BME280;11298;46.034;14.496;2022-09-12T07:57:54;98362.16;;;20.92;59.46
22259;BME280;11298;46.034;14.496;2022-09-12T08:00:26;98357.72;;;20.81;57.50
22259;BME280;11298;46.034;14.496;2022-09-12T08:03:08;98362.41;;;20.90;58.22
22259;BME280;11298;46.034;14.496;2022-09-12T08:05:38;98352.19;;;20.81;57.06
22259;BME280;11298;46.034;14.496;2022-09-12T08:08:09;98355.53;;;21.03;57.62
22259;BME280;11298;46.034;14.496;2022-09-12T08:10:48;98354.09;;;21.46;56.68
22259;BME280;11298;46.034;14.496;2022-09-12T08:13:28;98351.78;;;21.73;54.58
22259;BME280;11298;46.034;14.496;2022-09-12T08:16:02;98348.19;;;21.73;54.14
22259;BME280;11298;46.034;14.496;2022-09-12T08:18:34;98358.84;;;22.05;54.03
22259;BME280;11298;46.034;14.496;2022-09-12T08:21:14;98350.44;;;22.59;56.63
22259;BME280;11298;46.034;14.496;2022-09-12T08:23:46;98360.44;;;22.94;52.15
22259;BME280;11298;46.034;14.496;2022-09-12T08:26:14;98363.03;;;23.15;50.81
22259;BME280;11298;46.034;14.496;2022-09-12T08:28:44;98354.69;;;23.20;52.45
22259;BME280;11298;46.034;14.496;2022-09-12T08:31:23;98342.69;;;23.24;51.56
22259;BME280;11298;46.034;14.496;2022-09-12T08:33:57;98341.34;;;23.22;51.68
22259;BME280;11298;46.034;14.496;2022-09-12T08:36:28;98341.78;;;23.34;50.68
22259;BME280;11298;46.034;14.496;2022-09-12T08:39:02;98351.78;;;23.30;50.41
22259;BME280;11298;46.034;14.496;2022-09-12T08:41:48;98353.28;;;23.46;50.39
22259;BME280;11298;46.034;14.496;2022-09-12T08:45:04;98349.75;;;23.64;49.88
22259;BME280;11298;46.034;14.496;2022-09-12T08:47:40;98338.16;;;23.62;49.12
22259;BME280;11298;46.034;14.496;2022-09-12T08:50:18;98332.66;;;23.57;47.75
22259;BME280;11298;46.034;14.496;2022-09-12T08:53:19;98336.88;;;23.55;48.80
22259;BME280;11298;46.034;14.496;2022-09-12T08:55:58;98337.19;;;23.48;48.82
22259;BME280;11298;46.034;14.496;2022-09-12T08:58:30;98334.09;;;23.55;48.69
22259;BME280;11298;46.034;14.496;2022-09-12T09:01:34;98332.69;;;22.99;48.86
22259;BME280;11298;46.034;14.496;2022-09-12T09:04:43;98331.31;;;23.26;48.45
22259;BME280;11298;46.034;14.496;2022-09-12T09:17:46;98320.97;;;23.84;46.03
22259;BME280;11298;46.034;14.496;2022-09-12T09:20:48;98313.59;;;24.36;45.62
22259;BME280;11298;46.034;14.496;2022-09-12T09:23:47;98316.38;;;24.87;44.57
22259;BME280;11298;46.034;14.496;2022-09-12T09:27:27;98315.84;;;25.31;44.92
22259;BME280;11298;46.034;14.496;2022-09-12T09:30:15;98305.16;;;25.25;42.56
22259;BME280;11298;46.034;14.496;2022-09-12T09:32:49;98316.59;;;25.37;42.70
22259;BME280;11298;46.034;14.496;2022-09-12T09:36:28;98309.44;;;25.63;42.49
22259;BME280;11298;46.034;14.496;2022-09-12T09:39:22;98299.91;;;25.37;40.36
22259;BME280;11298;46.034;14.496;2022-09-12T09:42:00;98293.31;;;25.19;41.35
22259;BME280;11298;46.034;14.496;2022-09-12T09:44:42;98287.41;;;25.07;41.36
22259;BME280;11298;46.034;14.496;2022-09-12T09:47:13;98288.50;;;25.25;42.31
22259;BME280;11298;46.034;14.496;2022-09-12T09:49:41;98287.47;;;25.48;42.19
22259;BME280;11298;46.034;14.496;2022-09-12T09:52:15;98285.72;;;26.29;43.15
22259;BME280;11298;46.034;14.496;2022-09-12T09:54:48;98280.91;;;26.88;40.55
22259;BME280;11298;46.034;14.496;2022-09-12T09:57:43;98275.19;;;27.16;38.26
22259;BME280;11298;46.034;14.496;2022-09-12T10:00:31;98280.19;;;26.96;38.99
22259;BME280;11298;46.034;14.496;2022-09-12T10:03:37;98274.28;;;26.31;39.42
22259;BME280;11298;46.034;14.496;2022-09-12T10:06:28;98276.59;;;26.82;38.34
22259;BME280;11298;46.034;14.496;2022-09-12T10:09:18;98272.38;;;26.85;38.27
22259;BME280;11298;46.034;14.496;2022-09-12T10:11:48;98266.19;;;26.43;39.31
22259;BME280;11298;46.034;14.496;2022-09-12T10:14:55;98275.19;;;26.26;39.10
22259;BME280;11298;46.034;14.496;2022-09-12T10:17:30;98272.72;;;26.25;39.87
22259;BME280;11298;46.034;14.496;2022-09-12T10:20:02;98263.28;;;26.12;38.23
22259;BME280;11298;46.034;14.496;2022-09-12T10:22:52;98263.97;;;25.54;39.51
22259;BME280;11298;46.034;14.496;2022-09-12T10:25:24;98260.38;;;25.13;41.11
22259;BME280;11298;46.034;14.496;2022-09-12T10:27:57;98256.75;;;25.67;43.12
22259;BME280;11298;46.034;14.496;2022-09-12T10:30:27;98259.53;;;26.53;43.91
22259;BME280;11298;46.034;14.496;2022-09-12T10:33:07;98252.09;;;26.70;38.09
22259;BME280;11298;46.034;14.496;2022-09-12T10:35:48;98248.03;;;26.68;38.22
22259;BME280;11298;46.034;14.496;2022-09-12T10:38:29;98241.88;;;25.99;39.60
22259;BME280;11298;46.034;14.496;2022-09-12T10:41:04;98243.03;;;26.20;39.53
22259;BME280;11298;46.034;14.496;2022-09-12T10:43:38;98235.63;;;25.80;39.60
22259;BME280;11298;46.034;14.496;2022-09-12T10:49:31;98230.75;;;26.57;39.86
22259;BME280;11298;46.034;14.496;2022-09-12T10:52:23;98230.56;;;26.54;38.15
22259;BME280;11298;46.034;14.496;2022-09-12T10:54:55;98230.41;;;26.59;39.16
22259;BME280;11298;46.034;14.496;2022-09-12T10:57:58;98228.47;;;27.21;38.10
22259;BME280;11298;46.034;14.496;2022-09-12T11:00:46;98228.19;;;27.97;39.15
22259;BME280;11298;46.034;14.496;2022-09-12T11:03:28;98230.66;;;28.50;37.83
22259;BME280;11298;46.034;14.496;2022-09-12T11:06:03;98234.38;;;28.80;36.12
22259;BME280;11298;46.034;14.496;2022-09-12T11:11:47;98231.00;;;28.49;34.42
22259;BME280;11298;46.034;14.496;2022-09-12T11:14:32;98209.00;;;27.30;35.80
22259;BME280;11298;46.034;14.496;2022-09-12T11:17:35;98216.25;;;28.22;36.28
22259;BME280;11298;46.034;14.496;2022-09-12T11:30:17;98213.25;;;29.17;33.87
22259;BME280;11298;46.034;14.496;2022-09-12T11:33:08;98203.59;;;29.06;35.28
22259;BME280;11298;46.034;14.496;2022-09-12T11:36:01;98208.09;;;29.28;37.91
22259;BME280;11298;46.034;14.496;2022-09-12T11:41:41;98218.47;;;29.27;34.98
22259;BME280;11298;46.034;14.496;2022-09-12T11:44:21;98209.69;;;29.38;35.86
22259;BME280;11298;46.034;14.496;2022-09-12T11:46:54;98205.72;;;29.77;34.82
22259;BME280;11298;46.034;14.496;2022-09-12T11:49:31;98201.31;;;29.38;33.20
22259;BME280;11298;46.034;14.496;2022-09-12T11:52:12;98198.88;;;28.89;32.87
22259;BME280;11298;46.034;14.496;2022-09-12T11:55:03;98196.34;;;28.24;34.34
22259;BME280;11298;46.034;14.496;2022-09-12T11:57:39;98195.00;;;28.56;34.15
22259;BME280;11298;46.034;14.496;2022-09-12T12:00:18;98188.53;;;28.90;32.69
22259;BME280;11298;46.034;14.496;2022-09-12T12:08:24;98183.78;;;28.73;29.82
22259;BME280;11298;46.034;14.496;2022-09-12T12:10:57;98187.75;;;28.72;30.26
22259;BME280;11298;46.034;14.496;2022-09-12T12:16:25;98175.28;;;29.46;29.49
22259;BME280;11298;46.034;14.496;2022-09-12T12:18:59;98171.69;;;29.87;31.08
22259;BME280;11298;46.034;14.496;2022-09-12T12:24:28;98175.13;;;29.92;30.68
22259;BME280;11298;46.034;14.496;2022-09-12T12:27:02;98168.50;;;29.76;29.65
22259;BME280;11298;46.034;14.496;2022-09-12T12:29:41;98164.06;;;29.75;28.67
22259;BME280;11298;46.034;14.496;2022-09-12T12:34:41;98165.66;;;28.88;30.28
22259;BME280;11298;46.034;14.496;2022-09-12T12:37:47;98153.19;;;28.85;30.76
22259;BME280;11298;46.034;14.496;2022-09-12T12:40:24;98152.63;;;29.30;29.29
22259;BME280;11298;46.034;14.496;2022-09-12T12:43:00;98141.94;;;29.61;30.31
22259;BME280;11298;46.034;14.496;2022-09-12T12:48:06;98139.22;;;29.15;30.15
22259;BME280;11298;46.034;14.496;2022-09-12T12:50:35;98138.81;;;29.04;30.95
22259;BME280;11298;46.034;14.496;2022-09-12T12:53:40;98130.72;;;29.61;31.80
22259;BME280;11298;46.034;14.496;2022-09-12T12:56:27;98130.63;;;29.99;31.13
22259;BME280;11298;46.034;14.496;2022-09-12T12:58:59;98122.84;;;30.17;29.81
22259;BME280;11298;46.034;14.496;2022-09-12T13:01:28;98123.22;;;30.49;31.07
22259;BME280;11298;46.034;14.496;2022-09-12T13:04:04;98121.16;;;30.25;29.16
22259;BME280;11298;46.034;14.496;2022-09-12T13:06:40;98117.38;;;30.09;31.31
22259;BME280;11298;46.034;14.496;2022-09-12T13:09:20;98115.25;;;30.06;30.08
22259;BME280;11298;46.034;14.496;2022-09-12T13:20:30;98104.81;;;30.60;29.58
22259;BME280;11298;46.034;14.496;2022-09-12T13:23:03;98099.81;;;30.32;30.24
22259;BME280;11298;46.034;14.496;2022-09-12T13:25:34;98096.72;;;30.13;29.90
22259;BME280;11298;46.034;14.496;2022-09-12T13:30:42;98095.78;;;30.09;28.91
22259;BME280;11298;46.034;14.496;2022-09-12T13:33:33;98082.09;;;29.87;30.13
22259;BME280;11298;46.034;14.496;2022-09-12T13:36:23;98083.09;;;29.49;31.03
22259;BME280;11298;46.034;14.496;2022-09-12T13:39:04;98070.53;;;29.55;30.64
22259;BME280;11298;46.034;14.496;2022-09-12T13:44:20;98068.72;;;28.71;31.10
22259;BME280;11298;46.034;14.496;2022-09-12T13:47:00;98065.75;;;28.76;32.08
22259;BME280;11298;46.034;14.496;2022-09-12T13:49:37;98065.88;;;29.39;33.61
22259;BME280;11298;46.034;14.496;2022-09-12T13:52:22;98065.09;;;29.92;31.73
22259;BME280;11298;46.034;14.496;2022-09-12T13:54:57;98057.00;;;29.78;31.68
22259;BME280;11298;46.034;14.496;2022-09-12T13:57:37;98049.47;;;29.91;31.33
22259;BME280;11298;46.034;14.496;2022-09-12T14:00:14;98059.84;;;30.11;30.84
22259;BME280;11298;46.034;14.496;2022-09-12T14:02:49;98059.63;;;30.28;31.52
22259;BME280;11298;46.034;14.496;2022-09-12T14:05:37;98049.88;;;30.47;31.42
22259;BME280;11298;46.034;14.496;2022-09-12T14:08:08;98049.22;;;30.62;29.69
22259;BME280;11298;46.034;14.496;2022-09-12T14:10:56;98048.28;;;30.70;31.78
22259;BME280;11298;46.034;14.496;2022-09-12T14:13:27;98053.78;;;30.79;31.36
22259;BME280;11298;46.034;14.496;2022-09-12T14:15:57;98048.19;;;30.79;28.33
22259;BME280;11298;46.034;14.496;2022-09-12T14:18:28;98038.00;;;30.62;30.37
22259;BME280;11298;46.034;14.496;2022-09-12T14:21:05;98038.13;;;30.08;30.62
22259;BME280;11298;46.034;14.496;2022-09-12T14:23:44;98024.09;;;29.75;31.36
22259;BME280;11298;46.034;14.496;2022-09-12T14:26:14;98032.50;;;29.54;31.03
22259;BME280;11298;46.034;14.496;2022-09-12T14:28:45;98022.91;;;29.43;31.90
22259;BME280;11298;46.034;14.496;2022-09-12T14:31:22;98016.75;;;29.50;31.91
22259;BME280;11298;46.034;14.496;2022-09-12T14:34:06;98016.88;;;29.53;30.73
22259;BME280;11298;46.034;14.496;2022-09-12T14:36:57;98016.94;;;29.24;31.78
22259;BME280;11298;46.034;14.496;2022-09-12T14:39:41;98017.41;;;29.26;31.46
22259;BME280;11298;46.034;14.496;2022-09-12T14:42:13;98013.28;;;28.82;31.73
22259;BME280;11298;46.034;14.496;2022-09-12T14:44:55;98007.63;;;28.61;33.15
22259;BME280;11298;46.034;14.496;2022-09-12T14:47:30;98003.47;;;28.67;32.09
22259;BME280;11298;46.034;14.496;2022-09-12T14:49:59;98008.31;;;28.87;32.39
22259;BME280;11298;46.034;14.496;2022-09-12T14:52:32;98005.06;;;29.06;32.12
22259;BME280;11298;46.034;14.496;2022-09-12T14:55:27;97997.91;;;29.17;31.62
22259;BME280;11298;46.034;14.496;2022-09-12T14:58:27;98000.63;;;29.26;32.23
22259;BME280;11298;46.034;14.496;2022-09-12T15:01:21;98003.28;;;29.22;33.05
22259;BME280;11298;46.034;14.496;2022-09-12T15:03:54;97996.75;;;29.18;31.81
22259;BME280;11298;46.034;14.496;2022-09-12T15:06:33;98002.13;;;29.02;31.58
22259;BME280;11298;46.034;14.496;2022-09-12T15:09:12;97993.94;;;28.97;31.83
22259;BME280;11298;46.034;14.496;2022-09-12T15:11:41;98005.47;;;28.66;32.61
22259;BME280;11298;46.034;14.496;2022-09-12T15:14:12;97991.53;;;28.58;34.10
22259;BME280;11298;46.034;14.496;2022-09-12T15:16:40;97991.38;;;28.54;32.58
22259;BME280;11298;46.034;14.496;2022-09-12T15:19:11;97991.47;;;28.66;33.48
22259;BME280;11298;46.034;14.496;2022-09-12T15:21:38;97987.72;;;28.62;32.43
22259;BME280;11298;46.034;14.496;2022-09-12T15:24:09;97988.56;;;28.25;32.58
22259;BME280;11298;46.034;14.496;2022-09-12T15:26:39;97982.81;;;28.13;33.78